Time;durP1;ratioP1;P1;durP2;ratioP2;P2;SDS_P1;SDS_P2;PMS_P1;PMS_P2;Temp;Humidity;BMP_temperature;BMP_pressure;BME280_temperature;BME280_humidity;BME280_pressure;Samples;Min_cycle;Max_cycle;Signal;HPM_P1;HPM_P2
2022/09/16 00:01:19;;;;;;;1.50;1.08;;;12.30;99.90;;;;;;4409320;27;10000532;-84
2022/09/16 00:03:46;;;;;;;2.28;1.00;;;12.20;99.90;;;;;;5129546;27;20102;-84
2022/09/16 00:06:23;;;;;;;2.38;1.17;;;12.20;99.90;;;;;;5124337;27;20108;-84
2022/09/16 00:08:50;;;;;;;3.45;1.33;;;12.20;99.90;;;;;;5126163;27;20035;-84
2022/09/16 00:11:17;;;;;;;2.00;1.05;;;12.10;99.90;;;;;;5127018;27;20015;-84
2022/09/16 00:13:44;;;;;;;2.30;1.15;;;12.10;99.90;;;;;;5123555;27;20019;-84
2022/09/16 00:16:18;;;;;;;3.00;1.33;;;12.00;99.90;;;;;;5112410;27;20034;-84
2022/09/16 00:18:44;;;;;;;1.35;1.08;;;12.10;99.90;;;;;;5131174;27;20150;-84
2022/09/16 00:21:10;;;;;;;2.75;1.25;;;12.10;99.90;;;;;;5126528;27;20035;-84
2022/09/16 00:23:36;;;;;;;2.05;1.20;;;12.10;99.90;;;;;;5134998;27;20027;-84
2022/09/16 00:26:03;;;;;;;2.40;1.27;;;12.10;99.90;;;;;;5126430;27;20114;-82
2022/09/16 00:28:28;;;;;;;3.13;1.63;;;12.00;99.90;;;;;;5109746;27;20023;-83
2022/09/16 00:30:58;;;;;;;2.63;1.40;;;12.10;99.90;;;;;;5130248;27;20588;-84
2022/09/16 00:33:24;;;;;;;1.98;1.35;;;12.10;99.90;;;;;;5118383;27;20106;-82
2022/09/16 00:35:50;;;;;;;4.07;1.45;;;12.10;99.90;;;;;;5132168;27;20137;-83
2022/09/16 00:38:16;;;;;;;1.73;1.50;;;12.10;99.90;;;;;;5127083;27;20026;-84
2022/09/16 00:40:48;;;;;;;2.75;1.50;;;12.10;99.90;;;;;;5134439;27;20698;-83
2022/09/16 00:43:18;;;;;;;2.45;1.30;;;12.10;99.90;;;;;;5125793;27;20416;-83
2022/09/16 00:45:50;;;;;;;2.70;1.42;;;12.10;99.90;;;;;;5113466;27;20106;-84
2022/09/16 00:48:20;;;;;;;2.67;1.50;;;12.10;99.90;;;;;;5116242;27;20034;-83
2022/09/16 00:50:56;;;;;;;3.40;1.50;;;12.10;99.90;;;;;;5122146;27;20043;-83
2022/09/16 00:53:26;;;;;;;2.28;1.33;;;12.00;99.90;;;;;;5120541;27;20101;-83
2022/09/16 00:55:55;;;;;;;4.20;1.50;;;12.00;99.90;;;;;;5128171;27;21097;-84
2022/09/16 00:58:32;;;;;;;5.65;1.60;;;11.90;99.90;;;;;;5108111;27;20078;-84
2022/09/16 01:00:58;;;;;;;3.03;1.55;;;11.90;99.90;;;;;;5114531;27;20027;-83
2022/09/16 01:03:24;;;;;;;3.38;1.70;;;11.90;99.90;;;;;;5109823;27;20682;-84
2022/09/16 01:05:51;;;;;;;3.72;1.40;;;11.90;99.90;;;;;;5126016;27;20363;-83
2022/09/16 01:08:17;;;;;;;2.75;1.55;;;11.80;99.90;;;;;;5123589;27;20544;-83
2022/09/16 01:10:42;;;;;;;3.13;1.30;;;11.80;99.90;;;;;;5134249;27;20028;-83
2022/09/16 01:13:11;;;;;;;3.72;1.40;;;11.80;99.90;;;;;;5126829;27;20076;-83
2022/09/16 01:15:46;;;;;;;5.43;1.48;;;11.70;99.90;;;;;;5133432;27;20110;-83
2022/09/16 01:18:25;;;;;;;2.50;1.30;;;11.70;99.90;;;;;;5122328;27;20034;-83
2022/09/16 01:20:53;;;;;;;1.55;1.40;;;11.60;99.90;;;;;;5133800;27;20027;-83
2022/09/16 01:23:37;;;;;;;2.75;1.70;;;11.50;99.90;;;;;;5123592;27;20035;-84
2022/09/16 01:26:40;;;;;;;3.88;1.30;;;11.50;99.90;;;;;;5122666;27;20035;-84
2022/09/16 01:29:34;;;;;;;1.43;1.30;;;11.50;99.90;;;;;;5112260;27;20043;-84
2022/09/16 01:32:18;;;;;;;3.05;1.58;;;11.50;99.90;;;;;;5119365;27;20027;-84
2022/09/16 01:35:03;;;;;;;4.75;1.75;;;11.50;99.90;;;;;;5123775;27;20027;-85
2022/09/16 01:38:00;;;;;;;5.47;1.92;;;11.60;99.90;;;;;;5116712;27;20037;-83
2022/09/16 01:40:46;;;;;;;2.33;1.60;;;11.60;99.90;;;;;;5108383;27;20055;-84
2022/09/16 01:43:24;;;;;;;3.47;1.75;;;11.60;99.90;;;;;;5106678;28;20024;-84
2022/09/16 01:46:01;;;;;;;4.18;1.80;;;11.60;99.90;;;;;;5119964;27;20522;-83
2022/09/16 01:48:37;;;;;;;3.30;2.00;;;11.60;99.90;;;;;;5114462;27;20043;-84
2022/09/16 01:51:40;;;;;;;4.15;2.08;;;11.60;99.90;;;;;;5109538;27;20028;-84
2022/09/16 01:54:10;;;;;;;6.43;2.10;;;11.60;99.90;;;;;;5115063;27;20111;-84
2022/09/16 01:56:43;;;;;;;3.50;2.10;;;11.60;99.90;;;;;;5109513;27;20459;-84
2022/09/16 01:59:12;;;;;;;;;;;11.50;99.90;;;;;;5116594;27;20046;-84
2022/09/16 02:02:05;;;;;;;3.08;1.77;;;11.50;99.90;;;;;;5111203;27;20481;-84
2022/09/16 02:04:36;;;;;;;2.75;1.80;;;11.50;99.90;;;;;;5126254;27;20027;-84
2022/09/16 02:07:06;;;;;;;1.90;1.52;;;11.40;99.90;;;;;;5113011;27;20035;-84
2022/09/16 02:09:40;;;;;;;2.55;1.95;;;11.40;99.90;;;;;;5121236;27;20019;-84
2022/09/16 02:12:14;;;;;;;2.45;2.25;;;11.40;99.90;;;;;;5120925;27;20031;-84
2022/09/16 02:14:43;;;;;;;2.10;1.73;;;11.30;99.90;;;;;;5111851;27;20023;-84
2022/09/16 02:17:11;;;;;;;3.13;2.13;;;11.30;99.90;;;;;;5117927;27;20020;-84
2022/09/16 02:19:56;;;;;;;4.85;2.47;;;11.30;99.90;;;;;;5128268;27;20113;-84
2022/09/16 02:22:39;;;;;;;3.50;1.80;;;11.30;99.90;;;;;;5124243;27;20040;-84
2022/09/16 02:25:07;;;;;;;5.03;2.58;;;11.30;99.90;;;;;;5106369;27;20044;-84
2022/09/16 02:27:35;;;;;;;4.60;2.38;;;11.30;99.90;;;;;;5110965;27;20036;-85
2022/09/16 02:30:10;;;;;;;3.10;2.20;;;11.30;99.90;;;;;;5112962;27;20034;-84
2022/09/16 02:32:42;;;;;;;2.65;2.13;;;11.20;99.90;;;;;;5124563;27;20019;-84
2022/09/16 02:35:12;;;;;;;5.07;2.10;;;11.20;99.90;;;;;;5123412;27;20014;-84
2022/09/16 02:37:48;;;;;;;5.80;2.17;;;11.20;99.90;;;;;;5112131;27;20035;-84
2022/09/16 02:40:21;;;;;;;2.05;1.75;;;11.20;99.90;;;;;;5124549;27;20476;-84
2022/09/16 02:42:46;;;;;;;2.55;1.80;;;11.20;99.90;;;;;;5123746;27;20032;-84
2022/09/16 02:45:12;;;;;;;2.30;1.85;;;11.20;99.90;;;;;;5127492;27;20482;-84
2022/09/16 02:47:47;;;;;;;4.57;2.08;;;11.20;99.90;;;;;;5133311;27;20047;-84
2022/09/16 02:50:26;;;;;;;5.55;2.00;;;11.20;99.90;;;;;;5109022;27;20031;-84
2022/09/16 02:53:07;;;;;;;2.97;1.90;;;11.10;99.90;;;;;;5130780;27;20032;-84
2022/09/16 02:55:49;;;;;;;3.00;1.95;;;11.10;99.90;;;;;;5122099;27;20106;-84
2022/09/16 02:58:15;;;;;;;2.78;1.90;;;11.10;99.90;;;;;;5124381;27;20031;-84
2022/09/16 03:00:46;;;;;;;2.88;2.20;;;11.10;99.90;;;;;;5113514;27;20023;-83
2022/09/16 03:03:12;;;;;;;4.00;1.90;;;11.20;99.90;;;;;;5114029;27;20031;-84
2022/09/16 03:06:03;;;;;;;3.55;2.30;;;11.10;99.90;;;;;;5124931;27;20023;-83
2022/09/16 03:08:29;;;;;;;10.85;2.80;;;11.10;99.90;;;;;;5128835;27;20459;-83
2022/09/16 03:10:57;;;;;;;2.20;1.90;;;11.10;99.90;;;;;;5128176;27;20023;-83
2022/09/16 03:13:36;;;;;;;4.25;2.20;;;11.00;99.90;;;;;;5124788;27;20020;-83
2022/09/16 03:16:13;;;;;;;4.85;2.20;;;11.10;99.90;;;;;;5128592;27;20049;-84
2022/09/16 03:18:54;;;;;;;4.85;2.38;;;11.10;99.90;;;;;;5125286;27;20026;-85
2022/09/16 03:21:41;;;;;;;3.63;2.30;;;11.20;99.90;;;;;;5133408;27;20023;-84
2022/09/16 03:24:23;;;;;;;3.67;2.10;;;11.20;99.90;;;;;;5116030;27;20119;-84
2022/09/16 03:27:04;;;;;;;4.43;2.30;;;11.20;99.90;;;;;;5119188;27;20023;-84
2022/09/16 03:29:38;;;;;;;4.85;2.20;;;11.30;99.90;;;;;;5128662;27;20038;-84
2022/09/16 03:32:31;;;;;;;4.70;2.70;;;11.30;99.90;;;;;;5131026;27;20087;-84
2022/09/16 03:35:01;;;;;;;2.47;2.28;;;11.40;99.90;;;;;;5123760;27;20027;-84
2022/09/16 03:37:30;;;;;;;3.72;2.40;;;11.30;99.90;;;;;;5123379;27;20027;-84
2022/09/16 03:39:58;;;;;;;3.05;2.20;;;11.30;99.90;;;;;;5123680;27;20038;-84
2022/09/16 03:42:24;;;;;;;6.18;2.33;;;11.30;99.90;;;;;;5118431;27;20043;-84
2022/09/16 03:44:50;;;;;;;4.90;2.50;;;11.20;99.90;;;;;;5109814;27;20022;-85
2022/09/16 03:47:16;;;;;;;4.22;2.60;;;11.20;99.90;;;;;;5094977;27;20031;-84
2022/09/16 03:49:42;;;;;;;5.35;2.30;;;11.20;99.90;;;;;;5098544;28;20043;-84
2022/09/16 03:52:09;;;;;;;2.67;2.10;;;11.10;99.90;;;;;;5100908;27;20019;-84
2022/09/16 03:54:36;;;;;;;4.05;2.50;;;11.20;99.90;;;;;;5112971;27;20027;-84
2022/09/16 03:57:03;;;;;;;3.35;2.50;;;11.10;99.90;;;;;;5104606;27;20027;-84
2022/09/16 03:59:28;;;;;;;4.45;2.50;;;11.20;99.90;;;;;;5103687;27;20115;-84
2022/09/16 04:01:55;;;;;;;4.10;2.33;;;11.20;99.90;;;;;;5090768;27;20119;-84
2022/09/16 04:04:21;;;;;;;4.35;2.58;;;11.20;99.90;;;;;;5119378;27;21336;-84
2022/09/16 04:06:46;;;;;;;5.18;2.80;;;11.20;99.90;;;;;;5093113;27;20036;-84
2022/09/16 04:09:12;;;;;;;4.15;2.53;;;11.10;99.90;;;;;;5098758;27;20031;-84
2022/09/16 04:11:39;;;;;;;4.55;2.83;;;11.10;99.90;;;;;;5106716;27;20027;-83
2022/09/16 04:14:05;;;;;;;3.38;2.90;;;11.10;99.90;;;;;;5097125;27;20482;-84
2022/09/16 04:16:32;;;;;;;6.78;3.08;;;11.00;99.90;;;;;;5111294;27;20019;-84
2022/09/16 04:18:57;;;;;;;5.47;2.88;;;11.00;99.90;;;;;;5113086;27;20071;-84
2022/09/16 04:21:24;;;;;;;3.55;3.00;;;11.10;99.90;;;;;;5111470;27;20538;-84
2022/09/16 04:23:49;;;;;;;5.20;2.80;;;11.00;99.90;;;;;;5112036;27;20031;-84
2022/09/16 04:26:16;;;;;;;4.90;3.15;;;11.00;99.90;;;;;;5106737;27;20038;-84
2022/09/16 04:28:42;;;;;;;4.05;3.60;;;11.10;99.90;;;;;;5107696;27;20159;-84
2022/09/16 04:31:12;;;;;;;4.65;3.30;;;11.10;99.90;;;;;;5107072;27;20098;-84
2022/09/16 04:33:39;;;;;;;3.80;3.15;;;11.10;99.90;;;;;;5107671;27;20027;-84
2022/09/16 04:36:11;;;;;;;4.85;2.90;;;11.10;99.90;;;;;;5117239;27;20035;-83
2022/09/16 04:38:37;;;;;;;4.18;2.92;;;11.10;99.90;;;;;;5103704;27;20511;-84
2022/09/16 04:41:08;;;;;;;3.17;2.90;;;11.10;99.90;;;;;;5106367;27;20079;-84
2022/09/16 04:43:35;;;;;;;4.55;3.10;;;11.00;99.90;;;;;;5101547;27;20063;-83
2022/09/16 04:46:01;;;;;;;3.78;3.17;;;11.00;99.90;;;;;;5101945;27;20035;-84
2022/09/16 04:48:27;;;;;;;7.05;3.45;;;10.90;99.90;;;;;;5102137;27;20032;-83
2022/09/16 04:50:53;;;;;;;3.72;2.85;;;10.90;99.90;;;;;;5117200;27;20050;-83
2022/09/16 04:53:20;;;;;;;4.47;3.33;;;10.80;99.90;;;;;;5101012;27;20046;-84
2022/09/16 04:55:47;;;;;;;4.43;3.22;;;10.80;99.90;;;;;;5094136;27;20541;-83
2022/09/16 04:58:13;;;;;;;4.82;3.10;;;10.70;99.90;;;;;;5100453;27;20060;-83
2022/09/16 05:00:39;;;;;;;4.85;3.35;;;10.70;99.90;;;;;;5090691;28;20236;-84
2022/09/16 05:03:05;;;;;;;6.75;3.80;;;10.70;99.90;;;;;;5091453;28;20088;-82
2022/09/16 05:05:31;;;;;;;3.85;3.40;;;10.70;99.90;;;;;;5100071;27;20059;-84
2022/09/16 05:07:56;;;;;;;5.20;3.50;;;10.70;99.90;;;;;;5099832;28;20108;-83
2022/09/16 05:10:22;;;;;;;6.30;3.78;;;10.70;99.90;;;;;;5096193;28;20108;-83
2022/09/16 05:12:51;;;;;;;5.88;3.90;;;10.70;99.90;;;;;;5094866;28;20723;-83
2022/09/16 05:15:17;;;;;;;5.15;4.10;;;10.80;99.90;;;;;;5091936;28;20028;-83
2022/09/16 05:17:44;;;;;;;7.05;4.38;;;10.80;99.90;;;;;;5096972;28;20081;-83
2022/09/16 05:20:10;;;;;;;9.45;4.55;;;10.80;99.90;;;;;;5096800;28;20093;-83
2022/09/16 05:22:36;;;;;;;6.10;4.38;;;10.80;99.90;;;;;;5095240;27;20100;-84
2022/09/16 05:25:02;;;;;;;6.03;3.78;;;10.80;99.90;;;;;;5093703;27;20160;-83
2022/09/16 05:27:32;;;;;;;5.93;4.25;;;10.90;99.90;;;;;;5098966;27;20023;-84
2022/09/16 05:29:57;;;;;;;6.10;4.45;;;10.90;99.90;;;;;;5117642;27;20027;-83
2022/09/16 05:32:23;;;;;;;5.35;4.10;;;10.90;99.90;;;;;;5104575;27;20020;-84
2022/09/16 05:34:49;;;;;;;5.03;4.47;;;11.00;99.90;;;;;;5106434;27;20513;-83
2022/09/16 05:37:16;;;;;;;7.40;5.22;;;11.00;99.90;;;;;;5110129;27;20046;-83
2022/09/16 05:39:42;;;;;;;7.18;5.22;;;11.10;99.90;;;;;;5110299;27;20032;-84
2022/09/16 05:42:08;;;;;;;8.70;5.38;;;11.10;99.90;;;;;;5110281;27;20027;-83
2022/09/16 05:44:34;;;;;;;7.50;4.90;;;11.10;99.90;;;;;;5114653;27;20019;-84
2022/09/16 05:46:59;;;;;;;7.38;4.70;;;11.10;99.90;;;;;;5106831;27;20038;-84
2022/09/16 05:49:25;;;;;;;10.05;6.90;;;11.00;99.90;;;;;;5110154;27;20163;-84
2022/09/16 05:51:51;;;;;;;9.02;7.10;;;11.00;99.90;;;;;;5109721;27;20053;-83
2022/09/16 05:54:18;;;;;;;10.07;7.57;;;11.10;99.90;;;;;;5113873;27;20036;-83
2022/09/16 05:56:44;;;;;;;8.80;6.90;;;11.10;99.90;;;;;;5110852;27;20521;-84
2022/09/16 05:59:11;;;;;;;7.38;6.07;;;11.10;99.90;;;;;;5113798;27;20047;-83
2022/09/16 06:01:37;;;;;;;6.30;5.68;;;11.10;99.90;;;;;;5116724;27;20102;-84
2022/09/16 06:04:06;;;;;;;5.85;5.20;;;11.20;99.90;;;;;;5115634;27;20427;-83
2022/09/16 06:06:32;;;;;;;8.45;5.90;;;11.20;99.90;;;;;;5116022;27;20061;-84
2022/09/16 06:09:00;;;;;;;7.53;6.57;;;11.20;99.90;;;;;;5111291;28;20463;-84
2022/09/16 06:11:27;;;;;;;12.65;6.40;;;11.20;99.90;;;;;;5117591;28;20019;-83
2022/09/16 06:14:01;;;;;;;8.48;7.35;;;11.10;99.90;;;;;;5105723;28;20027;-84
2022/09/16 06:16:31;;;;;;;9.07;6.95;;;11.10;99.90;;;;;;5107182;27;20116;-79
2022/09/16 06:18:58;;;;;;;9.07;7.07;;;11.10;99.90;;;;;;5118620;27;20125;-83
2022/09/16 06:21:24;;;;;;;9.40;6.88;;;11.20;99.90;;;;;;5116343;27;20088;-83
2022/09/16 06:23:50;;;;;;;9.85;6.97;;;11.20;99.90;;;;;;5120214;28;20031;-86
2022/09/16 06:26:18;;;;;;;10.25;7.15;;;11.20;99.90;;;;;;4383473;27;10000911;-84
2022/09/16 06:28:44;;;;;;;8.77;6.45;;;11.20;99.90;;;;;;5089411;28;20048;-85
2022/09/16 06:31:18;;;;;;;9.40;6.35;;;11.20;99.90;;;;;;5093356;28;20032;-86
2022/09/16 06:33:44;;;;;;;9.02;6.20;;;11.30;99.90;;;;;;5090430;28;20128;-85
2022/09/16 06:36:18;;;;;;;10.38;6.43;;;11.30;99.90;;;;;;5088194;28;20479;-83
2022/09/16 06:38:45;;;;;;;10.85;6.68;;;11.40;99.90;;;;;;5087419;28;20031;-88
2022/09/16 06:41:12;;;;;;;12.70;9.75;;;11.50;99.90;;;;;;5080488;28;20081;-85
2022/09/16 06:43:38;;;;;;;12.00;7.13;;;11.50;99.90;;;;;;5089401;28;20093;-85
2022/09/16 06:46:08;;;;;;;12.80;7.32;;;11.60;99.90;;;;;;5086599;28;20515;-86
2022/09/16 06:48:34;;;;;;;9.45;6.80;;;11.60;99.90;;;;;;5084579;28;20024;-84
2022/09/16 06:51:04;;;;;;;7.93;6.75;;;11.60;99.90;;;;;;5091689;28;20042;-84
2022/09/16 06:53:31;;;;;;;9.77;6.90;;;11.60;99.90;;;;;;5088679;28;20027;-85
2022/09/16 06:56:05;;;;;;;10.35;6.00;;;11.70;99.90;;;;;;5073160;28;20511;-81
2022/09/16 06:58:32;;;;;;;9.20;6.45;;;11.70;99.90;;;;;;5090313;28;20032;-88
2022/09/16 07:00:58;;;;;;;9.18;6.53;;;11.70;99.90;;;;;;5126095;27;20540;-88
2022/09/16 07:03:24;;;;;;;6.80;5.22;;;11.80;99.90;;;;;;5121297;27;22667;-90
2022/09/16 07:06:00;;;;;;;8.93;4.90;;;11.80;99.90;;;;;;5121586;27;20039;-86
2022/09/16 07:08:30;;;;;;;11.48;5.00;;;11.80;99.90;;;;;;5110663;27;20523;-86
2022/09/16 07:11:02;;;;;;;9.80;5.32;;;11.90;99.90;;;;;;5132314;27;20031;-85
2022/09/16 07:13:28;;;;;;;10.57;5.70;;;11.90;99.90;;;;;;5142580;27;20054;-82
2022/09/16 07:15:53;;;;;;;6.45;4.80;;;12.00;99.90;;;;;;5116676;28;20235;-88
2022/09/16 07:18:19;;;;;;;9.65;5.05;;;12.10;99.90;;;;;;5133271;27;20058;-81
2022/09/16 07:20:45;;;;;;;8.05;4.50;;;12.30;99.90;;;;;;5128899;27;20035;-86
2022/09/16 07:23:10;;;;;;;6.50;4.50;;;12.40;99.90;;;;;;5114334;28;20442;-90
2022/09/16 07:25:36;;;;;;;7.88;4.20;;;12.50;99.90;;;;;;5121577;27;20710;-94
2022/09/16 07:28:02;;;;;;;4.93;3.92;;;12.60;99.90;;;;;;5144595;27;20019;-89
2022/09/16 07:30:29;;;;;;;8.13;4.07;;;12.70;99.90;;;;;;5116090;27;20537;-90
2022/09/16 07:32:55;;;;;;;6.43;4.47;;;12.80;99.90;;;;;;5116848;27;20039;-83
2022/09/16 07:35:21;;;;;;;7.68;4.43;;;12.80;99.90;;;;;;5126020;27;20113;-84
2022/09/16 07:37:46;;;;;;;7.72;4.55;;;12.80;99.90;;;;;;5116157;27;20085;-85
2022/09/16 07:40:12;;;;;;;9.73;4.63;;;12.90;99.90;;;;;;5131858;27;20043;-85
2022/09/16 07:42:38;;;;;;;5.63;3.80;;;13.00;99.90;;;;;;5119393;27;20551;-83
2022/09/16 07:45:05;;;;;;;5.07;3.30;;;13.00;99.90;;;;;;5134203;27;20546;-82
2022/09/16 07:47:31;;;;;;;4.15;3.42;;;13.00;99.90;;;;;;5144086;27;20026;-85
2022/09/16 07:49:56;;;;;;;6.88;3.03;;;13.10;99.90;;;;;;5109579;27;20034;-85
2022/09/16 07:52:28;;;;;;;7.10;3.10;;;13.20;99.90;;;;;;5115697;27;20118;-84
2022/09/16 07:54:54;;;;;;;3.55;2.50;;;13.20;99.90;;;;;;5129546;27;20055;-84
2022/09/16 07:57:20;;;;;;;3.95;2.60;;;13.30;99.90;;;;;;5117169;27;20509;-89
2022/09/16 07:59:46;;;;;;;4.97;2.17;;;13.40;99.90;;;;;;5118669;27;20041;-88
2022/09/16 08:02:12;;;;;;;3.40;1.90;;;13.50;99.90;;;;;;5133405;27;20104;-86
2022/09/16 08:04:38;;;;;;;2.90;1.90;;;13.70;99.90;;;;;;5143214;27;20023;-85
2022/09/16 08:07:05;;;;;;;3.15;1.20;;;13.80;99.90;;;;;;5115389;27;20130;-87
2022/09/16 08:09:30;;;;;;;3.80;1.30;;;14.00;99.90;;;;;;5136275;27;20045;-85
2022/09/16 08:11:56;;;;;;;3.15;1.20;;;14.10;99.90;;;;;;5136486;27;20471;-86
2022/09/16 08:14:22;;;;;;;3.75;1.30;;;14.20;99.90;;;;;;5129997;27;20042;-86
2022/09/16 08:16:50;;;;;;;4.68;1.45;;;14.30;99.90;;;;;;5113939;27;20402;-87
2022/09/16 08:19:16;;;;;;;2.83;1.17;;;14.30;99.90;;;;;;5133322;27;20518;-86
2022/09/16 08:21:42;;;;;;;5.60;1.17;;;14.30;99.90;;;;;;5116088;27;20023;-81
2022/09/16 08:24:08;;;;;;;2.00;1.27;;;14.30;99.90;;;;;;5117916;27;20671;-81
2022/09/16 08:26:34;;;;;;;2.65;1.00;;;14.30;99.90;;;;;;5114814;27;20031;-89
2022/09/16 08:29:00;;;;;;;2.38;1.10;;;14.40;99.90;;;;;;5130744;27;20991;-87
2022/09/16 08:31:26;;;;;;;3.25;1.17;;;14.50;99.90;;;;;;5134976;27;20039;-89
2022/09/16 08:33:52;;;;;;;1.90;1.25;;;14.50;99.90;;;;;;5143976;27;20486;-86
2022/09/16 08:36:23;;;;;;;1.40;0.95;;;14.50;99.90;;;;;;5121716;27;20513;-87
2022/09/16 08:38:52;;;;;;;3.22;1.42;;;14.40;99.90;;;;;;5138672;27;20076;-88
2022/09/16 08:41:20;;;;;;;2.92;1.20;;;14.40;99.90;;;;;;5099590;27;20055;-88
2022/09/16 08:44:27;;;;;;;3.33;1.40;;;14.40;99.90;;;;;;5089007;28;20233;-87
2022/09/16 08:46:59;;;;;;;1.42;1.10;;;14.30;99.90;;;;;;5099042;28;20031;-86
2022/09/16 08:49:39;;;;;;;5.43;1.50;;;14.30;99.90;;;;;;5102037;27;20087;-85
2022/09/16 08:52:36;;;;;;;2.53;1.33;;;14.30;99.90;;;;;;5108301;27;20030;-89
2022/09/16 08:55:07;;;;;;;2.42;1.10;;;14.30;99.90;;;;;;5092424;28;20023;-89
2022/09/16 08:57:41;;;;;;;2.97;1.13;;;14.30;99.90;;;;;;5095322;27;20073;-86
2022/09/16 09:00:15;;;;;;;3.78;1.00;;;14.30;99.90;;;;;;5094777;27;20035;-86
2022/09/16 09:02:51;;;;;;;4.05;1.05;;;14.30;99.90;;;;;;5084775;28;20035;-83
2022/09/16 09:05:27;;;;;;;3.22;1.30;;;14.40;99.90;;;;;;5089628;27;20028;-89
2022/09/16 09:08:15;;;;;;;1.75;1.20;;;14.30;99.90;;;;;;5113525;27;20042;-77
2022/09/16 09:11:12;;;;;;;3.60;1.20;;;14.30;99.90;;;;;;5097572;27;20051;-77
2022/09/16 09:14:09;;;;;;;1.95;1.27;;;14.40;99.90;;;;;;5110376;27;20635;-77
2022/09/16 09:16:47;;;;;;;2.63;1.20;;;14.40;99.90;;;;;;5093864;27;20531;-77
2022/09/16 09:19:30;;;;;;;3.13;1.10;;;14.40;99.90;;;;;;5115697;27;20910;-77
2022/09/16 09:22:09;;;;;;;2.33;1.17;;;14.40;99.90;;;;;;5098353;27;20394;-77
2022/09/16 09:24:51;;;;;;;4.40;1.20;;;14.50;99.90;;;;;;5105263;27;20035;-77
2022/09/16 09:27:29;;;;;;;5.72;1.50;;;14.90;99.90;;;;;;5089860;27;20031;-77
2022/09/16 09:30:14;;;;;;;2.70;1.10;;;15.20;99.90;;;;;;5112236;27;20126;-78
2022/09/16 09:32:58;;;;;;;1.10;1.00;;;15.30;99.90;;;;;;5082710;27;20206;-77
2022/09/16 09:35:32;;;;;;;3.33;1.00;;;15.40;99.90;;;;;;5101329;28;20015;-77
2022/09/16 09:38:08;;;;;;;;;;;15.60;99.90;;;;;;5098132;27;20024;-78
2022/09/16 09:40:47;;;;;;;1.50;0.90;;;15.90;99.90;;;;;;5119820;27;19915;-78
2022/09/16 09:43:26;;;;;;;2.47;1.05;;;16.20;99.90;;;;;;5090824;27;20034;-78
2022/09/16 09:46:22;;;;;;;1.88;0.90;;;16.30;99.90;;;;;;5112183;27;20111;-77
2022/09/16 09:49:12;;;;;;;3.22;1.00;;;16.50;99.90;;;;;;5098668;27;20173;-76
2022/09/16 09:52:06;;;;;;;2.10;0.75;;;16.80;99.90;;;;;;5099237;27;20027;-78
2022/09/16 09:54:37;;;;;;;2.17;0.50;;;17.00;99.90;;;;;;5116079;27;20035;-78
2022/09/16 09:57:10;;;;;;;1.15;0.60;;;16.90;99.90;;;;;;5106724;27;20456;-78
2022/09/16 10:00:13;;;;;;;0.70;0.70;;;16.60;99.90;;;;;;5120531;27;20031;-78
2022/09/16 10:02:40;;;;;;;1.38;0.70;;;16.40;99.90;;;;;;5055084;27;20122;-78
2022/09/16 10:05:32;;;;;;;1.40;0.55;;;16.30;99.90;;;;;;5104410;27;20771;-85
2022/09/16 10:08:19;;;;;;;1.88;0.50;;;16.40;99.90;;;;;;5106324;27;20039;-88
2022/09/16 10:11:00;;;;;;;1.27;0.40;;;16.50;99.90;;;;;;5080996;28;20039;-86
2022/09/16 10:13:28;;;;;;;2.30;0.60;;;16.60;99.90;;;;;;5116299;28;20032;-86
2022/09/16 10:16:20;;;;;;;4.10;0.80;;;16.60;99.90;;;;;;5108188;28;20106;-85
2022/09/16 10:18:55;;;;;;;1.67;0.65;;;16.50;99.90;;;;;;5124542;28;20031;-85
2022/09/16 10:21:21;;;;;;;1.48;0.63;;;16.50;99.90;;;;;;5088192;28;20150;-86
2022/09/16 10:23:56;;;;;;;1.25;0.70;;;16.40;99.90;;;;;;5113960;28;20119;-84
2022/09/16 10:26:22;;;;;;;1.35;0.60;;;16.30;99.90;;;;;;5118707;28;20146;-86
2022/09/16 10:28:57;;;;;;;2.58;0.80;;;16.20;99.90;;;;;;5105238;28;20046;-81
2022/09/16 10:31:25;;;;;;;2.05;0.70;;;16.00;99.90;;;;;;5107023;28;20019;-81
2022/09/16 10:33:51;;;;;;;2.00;0.93;;;15.80;99.90;;;;;;5105558;28;20023;-82
2022/09/16 10:36:31;;;;;;;2.70;0.80;;;15.80;99.90;;;;;;5099672;28;20018;-83
2022/09/16 10:38:59;;;;;;;4.00;0.93;;;15.70;99.90;;;;;;5099937;28;20614;-81
2022/09/16 10:41:28;;;;;;;2.35;1.00;;;15.90;99.90;;;;;;5112494;27;20100;-86
2022/09/16 10:43:55;;;;;;;0.70;0.60;;;16.10;99.90;;;;;;5118635;27;20201;-83
2022/09/16 10:46:21;;;;;;;5.28;1.30;;;16.10;99.90;;;;;;5132523;27;20034;-84
2022/09/16 10:48:48;;;;;;;2.05;1.23;;;16.30;99.90;;;;;;5121784;27;20137;-81
2022/09/16 10:51:21;;;;;;;3.80;1.10;;;16.50;99.90;;;;;;5128194;27;20487;-83
2022/09/16 10:53:52;;;;;;;2.58;1.15;;;16.80;99.90;;;;;;5113881;27;20063;-82
2022/09/16 10:56:30;;;;;;;3.17;1.15;;;17.10;99.90;;;;;;5107973;27;20194;-82
2022/09/16 10:59:11;;;;;;;6.63;1.00;;;17.40;99.90;;;;;;5120282;27;20601;-84
2022/09/16 11:01:54;;;;;;;4.95;1.17;;;17.40;99.90;;;;;;5116706;27;20032;-83
2022/09/16 11:04:40;;;;;;;;;;;17.40;99.90;;;;;;5121078;27;20335;-83
2022/09/16 11:07:17;;;;;;;3.22;1.55;;;17.20;99.90;;;;;;5144497;27;19914;-85
2022/09/16 11:10:22;;;;;;;2.17;1.20;;;17.20;99.90;;;;;;5136429;27;20054;-83
2022/09/16 11:13:06;;;;;;;2.35;0.98;;;17.30;99.90;;;;;;5137980;27;20091;-82
2022/09/16 11:15:38;;;;;;;4.30;1.23;;;17.30;99.90;;;;;;5126700;27;20098;-82
2022/09/16 11:18:36;;;;;;;1.10;0.98;;;17.20;99.90;;;;;;5112547;27;20430;-85
2022/09/16 11:21:29;;;;;;;1.70;1.10;;;17.00;99.90;;;;;;5093291;27;20054;-82
2022/09/16 11:24:16;;;;;;;4.07;1.20;;;16.90;99.90;;;;;;5117731;27;20039;-83
2022/09/16 11:27:10;;;;;;;6.50;1.23;;;16.80;99.90;;;;;;5117835;27;20093;-84
2022/09/16 11:30:01;;;;;;;4.45;1.02;;;16.90;99.90;;;;;;5111834;27;20043;-82
2022/09/16 11:32:53;;;;;;;2.42;1.15;;;17.00;99.90;;;;;;5121246;27;20540;-80
2022/09/16 11:35:46;;;;;;;1.65;0.80;;;17.20;99.90;;;;;;5122248;27;20507;-84
2022/09/16 11:38:46;;;;;;;3.93;0.83;;;17.30;99.90;;;;;;5128277;27;20031;-86
2022/09/16 11:41:18;;;;;;;3.78;0.75;;;17.40;99.90;;;;;;5113630;27;20082;-85
2022/09/16 11:43:59;;;;;;;3.08;0.93;;;17.60;99.90;;;;;;5132226;27;20433;-82
2022/09/16 11:47:02;;;;;;;1.55;0.70;;;17.80;99.90;;;;;;5117344;27;20046;-88
2022/09/16 11:49:57;;;;;;;2.83;0.80;;;18.00;99.90;;;;;;5127502;27;20034;-87
2022/09/16 11:52:52;;;;;;;1.35;0.65;;;18.10;99.90;;;;;;5076857;27;20023;-83
2022/09/16 11:55:33;;;;;;;1.73;0.65;;;18.20;99.90;;;;;;5122105;27;20072;-88
2022/09/16 11:58:04;;;;;;;4.45;0.60;;;18.50;99.90;;;;;;5131971;27;20018;-85
2022/09/16 12:00:32;;;;;;;1.23;0.50;;;18.70;98.50;;;;;;5121507;27;20107;-86
2022/09/16 12:03:16;;;;;;;2.15;0.57;;;18.60;98.90;;;;;;5101739;27;20027;-88
2022/09/16 12:05:52;;;;;;;1.50;0.55;;;18.50;99.40;;;;;;5116444;27;20031;-85
2022/09/16 12:08:26;;;;;;;1.17;0.50;;;18.20;98.50;;;;;;5124283;27;20030;-86
2022/09/16 12:11:00;;;;;;;2.17;0.40;;;17.90;98.90;;;;;;5115444;27;20030;-85
2022/09/16 12:13:36;;;;;;;2.00;0.50;;;17.60;97.40;;;;;;5117161;27;20035;-83
2022/09/16 12:16:26;;;;;;;0.52;0.30;;;17.20;97.20;;;;;;5133310;27;20031;-82
2022/09/16 12:18:58;;;;;;;1.60;0.40;;;17.20;97.60;;;;;;5142837;27;20054;-82
2022/09/16 12:21:28;;;;;;;1.25;0.40;;;17.30;97.70;;;;;;5111257;27;20031;-83
2022/09/16 12:24:20;;;;;;;3.33;0.57;;;17.50;96.50;;;;;;5109147;27;20118;-90
2022/09/16 12:27:02;;;;;;;2.00;0.55;;;17.70;96.60;;;;;;5071649;27;20399;-86
2022/09/16 12:29:55;;;;;;;3.10;0.60;;;17.80;97.10;;;;;;5101191;28;20030;-88
2022/09/16 12:32:53;;;;;;;1.40;0.43;;;17.80;96.20;;;;;;5112783;27;20024;-87
2022/09/16 12:35:26;;;;;;;1.58;0.40;;;17.70;96.50;;;;;;5128018;27;20019;-87
2022/09/16 12:37:53;;;;;;;2.25;0.63;;;17.60;97.10;;;;;;5119581;27;20131;-88
2022/09/16 12:40:26;;;;;;;1.70;0.50;;;17.50;95.80;;;;;;5104581;27;20051;-87
2022/09/16 12:42:58;;;;;;;4.97;0.50;;;17.50;96.30;;;;;;5130019;27;20511;-83
2022/09/16 12:45:45;;;;;;;4.25;0.50;;;17.40;96.00;;;;;;5131318;27;20035;-87
2022/09/16 12:48:26;;;;;;;2.20;0.50;;;17.20;95.50;;;;;;5125152;27;20038;-85
2022/09/16 12:51:04;;;;;;;2.10;0.50;;;;;;;;;;5108215;27;20432;-83
2022/09/16 12:53:45;;;;;;;2.47;0.52;;;17.30;95.00;;;;;;5127419;27;20725;-87
2022/09/16 12:56:43;;;;;;;5.20;0.63;;;17.30;96.10;;;;;;5105368;27;20122;-88
2022/09/16 12:59:34;;;;;;;0.95;0.40;;;17.40;96.30;;;;;;5104302;27;20414;-89
2022/09/16 13:02:23;;;;;;;1.95;0.60;;;17.50;96.90;;;;;;5109152;27;20035;-85
2022/09/16 13:04:53;;;;;;;4.97;0.57;;;17.40;96.40;;;;;;5097103;27;20038;-85
2022/09/16 13:07:23;;;;;;;7.07;0.77;;;17.20;96.80;;;;;;5113025;27;20059;-83
2022/09/16 13:09:58;;;;;;;4.22;0.68;;;17.10;96.80;;;;;;5143642;27;20023;-83
2022/09/16 13:12:26;;;;;;;4.70;0.70;;;17.00;96.50;;;;;;5111866;27;20019;-83
2022/09/16 13:15:00;;;;;;;5.47;1.00;;;17.00;97.00;;;;;;5126603;27;20035;-83
2022/09/16 13:17:31;;;;;;;2.97;0.55;;;16.90;97.80;;;;;;5136123;27;20039;-83
2022/09/16 13:20:07;;;;;;;1.23;0.82;;;16.80;98.10;;;;;;5108737;27;20031;-83